sensor_id;sensor_type;location;lat;lon;timestamp;pressure;altitude;pressure_sealevel;temperature;humidity
41062;BME280;26812;42.662;23.352;2023-05-31T00:00:55;94981.38;;;18.24;69.28
41062;BME280;26812;42.662;23.352;2023-05-31T00:03:21;94982.47;;;18.20;69.20
41062;BME280;26812;42.662;23.352;2023-05-31T00:05:46;94975.56;;;18.26;69.39
41062;BME280;26812;42.662;23.352;2023-05-31T00:08:12;94977.50;;;18.25;69.66
41062;BME280;26812;42.662;23.352;2023-05-31T00:10:37;94969.44;;;18.33;69.18
41062;BME280;26812;42.662;23.352;2023-05-31T00:13:02;94971.63;;;18.23;69.61
41062;BME280;26812;42.662;23.352;2023-05-31T00:15:28;94967.28;;;18.19;69.64
41062;BME280;26812;42.662;23.352;2023-05-31T00:17:53;94965.13;;;18.31;68.96
41062;BME280;26812;42.662;23.352;2023-05-31T00:20:18;94987.09;;;18.39;68.89
41062;BME280;26812;42.662;23.352;2023-05-31T00:22:50;94981.19;;;18.37;69.14
41062;BME280;26812;42.662;23.352;2023-05-31T00:25:16;94977.97;;;18.31;69.20
41062;BME280;26812;42.662;23.352;2023-05-31T00:27:41;94984.44;;;18.42;69.46
41062;BME280;26812;42.662;23.352;2023-05-31T00:30:07;94966.66;;;18.29;69.69
41062;BME280;26812;42.662;23.352;2023-05-31T00:32:32;94973.47;;;18.39;69.73
41062;BME280;26812;42.662;23.352;2023-05-31T00:34:58;94975.03;;;18.40;69.67
41062;BME280;26812;42.662;23.352;2023-05-31T00:37:23;94988.94;;;18.35;69.69
41062;BME280;26812;42.662;23.352;2023-05-31T00:39:49;94981.91;;;18.34;69.47
41062;BME280;26812;42.662;23.352;2023-05-31T00:42:14;94980.22;;;18.25;69.53
41062;BME280;26812;42.662;23.352;2023-05-31T00:44:39;94977.56;;;18.29;69.65
41062;BME280;26812;42.662;23.352;2023-05-31T00:47:05;94981.13;;;18.33;70.24
41062;BME280;26812;42.662;23.352;2023-05-31T00:49:31;94973.88;;;18.18;70.64
41062;BME280;26812;42.662;23.352;2023-05-31T00:51:57;94990.19;;;18.14;71.18
41062;BME280;26812;42.662;23.352;2023-05-31T00:54:23;94984.38;;;18.16;70.74
41062;BME280;26812;42.662;23.352;2023-05-31T00:56:49;94984.41;;;18.19;70.84
41062;BME280;26812;42.662;23.352;2023-05-31T00:59:15;94972.00;;;18.22;70.51
41062;BME280;26812;42.662;23.352;2023-05-31T01:01:41;94973.94;;;18.21;71.01
41062;BME280;26812;42.662;23.352;2023-05-31T01:04:08;94984.38;;;18.39;69.99
41062;BME280;26812;42.662;23.352;2023-05-31T01:06:33;94978.88;;;18.61;69.05
41062;BME280;26812;42.662;23.352;2023-05-31T01:09:04;94991.31;;;18.36;69.91
41062;BME280;26812;42.662;23.352;2023-05-31T01:14:20;94999.75;;;18.27;70.65
41062;BME280;26812;42.662;23.352;2023-05-31T01:16:54;94981.44;;;18.05;71.34
41062;BME280;26812;42.662;23.352;2023-05-31T01:19:45;94993.31;;;18.16;70.52
41062;BME280;26812;42.662;23.352;2023-05-31T01:22:16;94993.97;;;18.33;69.96
41062;BME280;26812;42.662;23.352;2023-05-31T01:24:53;94987.75;;;18.32;67.87
41062;BME280;26812;42.662;23.352;2023-05-31T01:27:25;94993.09;;;18.25;68.22
41062;BME280;26812;42.662;23.352;2023-05-31T01:29:52;94990.50;;;17.90;69.55
41062;BME280;26812;42.662;23.352;2023-05-31T01:32:18;94990.53;;;18.13;69.74
41062;BME280;26812;42.662;23.352;2023-05-31T01:34:45;94978.03;;;17.89;71.16
41062;BME280;26812;42.662;23.352;2023-05-31T01:37:11;94974.38;;;17.81;71.20
41062;BME280;26812;42.662;23.352;2023-05-31T01:39:36;94983.47;;;17.89;71.37
41062;BME280;26812;42.662;23.352;2023-05-31T01:42:03;94982.22;;;18.06;70.56
41062;BME280;26812;42.662;23.352;2023-05-31T01:44:29;94984.97;;;18.28;69.02
41062;BME280;26812;42.662;23.352;2023-05-31T01:46:55;94967.56;;;17.72;71.53
41062;BME280;26812;42.662;23.352;2023-05-31T01:49:21;94983.91;;;17.91;71.87
41062;BME280;26812;42.662;23.352;2023-05-31T01:51:48;94968.63;;;17.86;71.17
41062;BME280;26812;42.662;23.352;2023-05-31T01:54:15;94991.53;;;18.05;70.97
41062;BME280;26812;42.662;23.352;2023-05-31T01:56:47;94986.84;;;18.24;69.81
41062;BME280;26812;42.662;23.352;2023-05-31T01:59:13;94967.72;;;17.79;71.27
41062;BME280;26812;42.662;23.352;2023-05-31T02:01:39;94992.44;;;17.89;71.59
41062;BME280;26812;42.662;23.352;2023-05-31T02:04:05;94981.97;;;17.91;71.82
41062;BME280;26812;42.662;23.352;2023-05-31T02:06:35;94983.22;;;18.17;70.80
41062;BME280;26812;42.662;23.352;2023-05-31T02:09:02;94993.81;;;18.22;70.62
41062;BME280;26812;42.662;23.352;2023-05-31T02:11:27;94984.41;;;17.96;70.09
41062;BME280;26812;42.662;23.352;2023-05-31T02:13:53;94978.69;;;17.82;71.61
41062;BME280;26812;42.662;23.352;2023-05-31T02:16:18;95001.78;;;17.88;71.98
41062;BME280;26812;42.662;23.352;2023-05-31T02:18:44;94974.16;;;17.71;72.36
41062;BME280;26812;42.662;23.352;2023-05-31T02:21:10;94989.53;;;17.79;72.72
41062;BME280;26812;42.662;23.352;2023-05-31T02:23:35;94988.44;;;17.83;72.22
41062;BME280;26812;42.662;23.352;2023-05-31T02:26:00;94999.09;;;17.92;72.40
41062;BME280;26812;42.662;23.352;2023-05-31T02:28:26;94976.63;;;17.76;72.12
41062;BME280;26812;42.662;23.352;2023-05-31T02:30:56;94995.34;;;17.77;72.92
41062;BME280;26812;42.662;23.352;2023-05-31T02:33:22;94985.59;;;17.76;72.79
41062;BME280;26812;42.662;23.352;2023-05-31T02:35:48;95000.84;;;17.81;73.13
41062;BME280;26812;42.662;23.352;2023-05-31T02:38:13;95000.25;;;17.91;72.90
41062;BME280;26812;42.662;23.352;2023-05-31T02:40:38;95002.13;;;18.06;72.49
41062;BME280;26812;42.662;23.352;2023-05-31T02:43:04;94998.78;;;18.16;71.53
41062;BME280;26812;42.662;23.352;2023-05-31T02:45:29;94986.63;;;17.91;71.84
41062;BME280;26812;42.662;23.352;2023-05-31T02:47:54;94996.66;;;18.06;71.74
41062;BME280;26812;42.662;23.352;2023-05-31T02:50:20;94987.44;;;18.14;70.56
41062;BME280;26812;42.662;23.352;2023-05-31T02:52:45;94990.81;;;17.85;72.47
41062;BME280;26812;42.662;23.352;2023-05-31T02:55:10;94998.19;;;17.84;72.88
41062;BME280;26812;42.662;23.352;2023-05-31T02:57:36;94985.13;;;17.74;73.63
41062;BME280;26812;42.662;23.352;2023-05-31T03:00:03;95005.28;;;17.89;73.29
41062;BME280;26812;42.662;23.352;2023-05-31T03:02:36;94999.16;;;17.95;72.98
41062;BME280;26812;42.662;23.352;2023-05-31T03:05:02;95005.91;;;18.02;72.47
41062;BME280;26812;42.662;23.352;2023-05-31T03:07:29;95000.75;;;17.96;72.62
41062;BME280;26812;42.662;23.352;2023-05-31T03:09:54;94999.13;;;17.73;73.07
41062;BME280;26812;42.662;23.352;2023-05-31T03:12:20;94990.78;;;17.65;73.37
41062;BME280;26812;42.662;23.352;2023-05-31T03:14:46;95000.19;;;17.68;73.76
41062;BME280;26812;42.662;23.352;2023-05-31T03:17:11;94991.72;;;17.73;73.57
41062;BME280;26812;42.662;23.352;2023-05-31T03:19:37;95009.94;;;17.88;72.95
41062;BME280;26812;42.662;23.352;2023-05-31T03:22:02;94982.13;;;17.60;73.18
41062;BME280;26812;42.662;23.352;2023-05-31T03:24:28;94988.00;;;17.62;73.67
41062;BME280;26812;42.662;23.352;2023-05-31T03:26:53;94994.09;;;17.55;73.90
41062;BME280;26812;42.662;23.352;2023-05-31T03:29:20;95003.28;;;17.47;74.15
41062;BME280;26812;42.662;23.352;2023-05-31T03:31:45;94988.16;;;17.50;74.04
41062;BME280;26812;42.662;23.352;2023-05-31T03:34:11;94993.31;;;17.55;73.57
41062;BME280;26812;42.662;23.352;2023-05-31T03:36:36;95011.22;;;17.75;72.82
41062;BME280;26812;42.662;23.352;2023-05-31T03:39:02;95012.06;;;17.76;72.90
41062;BME280;26812;42.662;23.352;2023-05-31T03:41:29;95015.28;;;17.81;72.23
41062;BME280;26812;42.662;23.352;2023-05-31T03:43:54;95012.31;;;17.90;72.09
41062;BME280;26812;42.662;23.352;2023-05-31T03:46:19;95019.75;;;17.93;72.25
41062;BME280;26812;42.662;23.352;2023-05-31T03:48:45;95004.72;;;17.80;72.44
41062;BME280;26812;42.662;23.352;2023-05-31T03:51:10;95019.28;;;17.68;73.02
41062;BME280;26812;42.662;23.352;2023-05-31T03:53:36;95015.91;;;17.75;73.13
41062;BME280;26812;42.662;23.352;2023-05-31T03:56:01;95036.19;;;17.96;72.53
41062;BME280;26812;42.662;23.352;2023-05-31T03:58:29;95022.34;;;17.86;72.76
41062;BME280;26812;42.662;23.352;2023-05-31T04:00:54;95020.84;;;18.08;71.80
41062;BME280;26812;42.662;23.352;2023-05-31T04:03:20;95029.72;;;18.05;72.42
41062;BME280;26812;42.662;23.352;2023-05-31T04:05:46;95032.94;;;18.10;72.29
41062;BME280;26812;42.662;23.352;2023-05-31T04:08:11;95026.38;;;17.92;72.69
41062;BME280;26812;42.662;23.352;2023-05-31T04:10:36;95018.63;;;17.94;72.59
41062;BME280;26812;42.662;23.352;2023-05-31T04:13:02;95017.09;;;17.96;72.09
41062;BME280;26812;42.662;23.352;2023-05-31T04:15:27;95031.63;;;18.23;71.04
41062;BME280;26812;42.662;23.352;2023-05-31T04:17:53;95020.91;;;17.73;72.14
41062;BME280;26812;42.662;23.352;2023-05-31T04:20:18;95040.66;;;17.85;72.55
41062;BME280;26812;42.662;23.352;2023-05-31T04:22:44;95034.41;;;17.85;72.50
41062;BME280;26812;42.662;23.352;2023-05-31T04:25:19;95030.28;;;17.56;73.36
41062;BME280;26812;42.662;23.352;2023-05-31T04:27:44;95029.94;;;17.57;73.43
41062;BME280;26812;42.662;23.352;2023-05-31T04:30:10;95044.13;;;17.66;73.28
41062;BME280;26812;42.662;23.352;2023-05-31T04:32:35;95037.97;;;17.50;73.51
41062;BME280;26812;42.662;23.352;2023-05-31T04:35:02;95047.56;;;17.63;73.80
41062;BME280;26812;42.662;23.352;2023-05-31T04:37:31;95022.84;;;17.72;72.64
41062;BME280;26812;42.662;23.352;2023-05-31T04:39:57;95042.84;;;17.60;73.13
41062;BME280;26812;42.662;23.352;2023-05-31T04:42:26;95055.84;;;17.86;72.24
41062;BME280;26812;42.662;23.352;2023-05-31T04:44:55;95021.56;;;17.47;73.66
41062;BME280;26812;42.662;23.352;2023-05-31T04:47:29;95056.28;;;17.69;73.45
41062;BME280;26812;42.662;23.352;2023-05-31T04:49:55;95057.91;;;18.12;72.40
41062;BME280;26812;42.662;23.352;2023-05-31T04:52:23;95046.38;;;18.42;70.02
41062;BME280;26812;42.662;23.352;2023-05-31T04:54:49;95053.25;;;18.36;70.04
41062;BME280;26812;42.662;23.352;2023-05-31T04:57:14;95049.38;;;18.14;71.43
41062;BME280;26812;42.662;23.352;2023-05-31T04:59:40;95055.19;;;17.93;72.00
41062;BME280;26812;42.662;23.352;2023-05-31T05:02:06;95055.97;;;17.93;72.15
41062;BME280;26812;42.662;23.352;2023-05-31T05:04:32;95048.16;;;18.11;71.36
41062;BME280;26812;42.662;23.352;2023-05-31T05:06:57;95066.09;;;17.93;72.07
41062;BME280;26812;42.662;23.352;2023-05-31T05:09:22;95054.94;;;17.79;72.58
41062;BME280;26812;42.662;23.352;2023-05-31T05:11:48;95065.03;;;17.78;72.33
41062;BME280;26812;42.662;23.352;2023-05-31T05:14:13;95075.38;;;18.30;70.82
41062;BME280;26812;42.662;23.352;2023-05-31T05:16:39;95081.56;;;18.27;70.46
41062;BME280;26812;42.662;23.352;2023-05-31T05:19:04;95079.84;;;18.00;71.46
41062;BME280;26812;42.662;23.352;2023-05-31T05:21:29;95067.78;;;17.62;72.53
41062;BME280;26812;42.662;23.352;2023-05-31T05:23:55;95063.66;;;18.07;71.19
41062;BME280;26812;42.662;23.352;2023-05-31T05:26:20;95086.25;;;18.08;71.03
41062;BME280;26812;42.662;23.352;2023-05-31T05:28:47;95080.00;;;17.68;72.81
41062;BME280;26812;42.662;23.352;2023-05-31T05:31:12;95085.59;;;17.95;71.97
41062;BME280;26812;42.662;23.352;2023-05-31T05:33:38;95060.47;;;17.47;72.79
41062;BME280;26812;42.662;23.352;2023-05-31T05:36:03;95095.28;;;17.92;73.00
41062;BME280;26812;42.662;23.352;2023-05-31T05:38:29;95093.00;;;18.14;71.45
41062;BME280;26812;42.662;23.352;2023-05-31T05:40:54;95054.47;;;18.15;70.54
41062;BME280;26812;42.662;23.352;2023-05-31T05:43:20;95101.84;;;18.49;70.41
41062;BME280;26812;42.662;23.352;2023-05-31T05:45:45;95062.72;;;18.19;70.41
41062;BME280;26812;42.662;23.352;2023-05-31T05:48:10;95090.34;;;17.98;71.75
41062;BME280;26812;42.662;23.352;2023-05-31T05:50:36;95033.13;;;18.21;70.13
41062;BME280;26812;42.662;23.352;2023-05-31T05:53:01;95104.91;;;18.67;70.59
41062;BME280;26812;42.662;23.352;2023-05-31T05:55:27;95098.59;;;18.63;70.00
41062;BME280;26812;42.662;23.352;2023-05-31T05:57:59;95071.41;;;18.93;68.79
41062;BME280;26812;42.662;23.352;2023-05-31T06:00:25;95069.38;;;18.86;68.99
41062;BME280;26812;42.662;23.352;2023-05-31T06:02:51;95062.22;;;18.78;68.42
41062;BME280;26812;42.662;23.352;2023-05-31T06:05:16;95102.00;;;18.79;69.12
41062;BME280;26812;42.662;23.352;2023-05-31T06:07:42;95052.88;;;18.79;67.92
41062;BME280;26812;42.662;23.352;2023-05-31T06:10:08;95105.47;;;19.52;66.75
41062;BME280;26812;42.662;23.352;2023-05-31T06:12:33;95062.97;;;19.28;65.95
41062;BME280;26812;42.662;23.352;2023-05-31T06:14:59;95082.47;;;19.00;67.72
41062;BME280;26812;42.662;23.352;2023-05-31T06:17:24;95066.44;;;18.53;68.83
41062;BME280;26812;42.662;23.352;2023-05-31T06:19:49;95087.56;;;19.02;68.09
41062;BME280;26812;42.662;23.352;2023-05-31T06:22:15;95095.50;;;19.10;68.21
41062;BME280;26812;42.662;23.352;2023-05-31T06:24:40;95110.75;;;19.38;67.27
41062;BME280;26812;42.662;23.352;2023-05-31T06:27:06;95078.69;;;19.08;68.14
41062;BME280;26812;42.662;23.352;2023-05-31T06:29:37;95102.69;;;19.48;67.78
41062;BME280;26812;42.662;23.352;2023-05-31T06:32:03;95066.34;;;19.44;66.73
41062;BME280;26812;42.662;23.352;2023-05-31T06:34:28;95103.91;;;19.77;66.68
41062;BME280;26812;42.662;23.352;2023-05-31T06:36:53;95089.81;;;19.75;66.34
41062;BME280;26812;42.662;23.352;2023-05-31T06:39:19;95094.31;;;19.91;65.56
41062;BME280;26812;42.662;23.352;2023-05-31T06:41:45;95078.09;;;19.75;66.06
41062;BME280;26812;42.662;23.352;2023-05-31T06:44:10;95085.41;;;19.97;65.10
41062;BME280;26812;42.662;23.352;2023-05-31T06:46:36;95115.50;;;19.97;65.20
41062;BME280;26812;42.662;23.352;2023-05-31T06:49:01;95064.69;;;19.96;64.00
41062;BME280;26812;42.662;23.352;2023-05-31T06:51:26;95064.78;;;19.73;64.13
41062;BME280;26812;42.662;23.352;2023-05-31T06:53:52;95094.97;;;20.14;63.69
41062;BME280;26812;42.662;23.352;2023-05-31T06:56:17;95091.28;;;19.99;63.82
41062;BME280;26812;42.662;23.352;2023-05-31T06:58:43;95103.81;;;20.00;64.55
41062;BME280;26812;42.662;23.352;2023-05-31T07:01:09;95096.91;;;20.13;64.59
41062;BME280;26812;42.662;23.352;2023-05-31T07:03:34;95095.56;;;20.30;63.57
41062;BME280;26812;42.662;23.352;2023-05-31T07:06:00;95064.72;;;20.33;63.13
41062;BME280;26812;42.662;23.352;2023-05-31T07:08:25;95106.88;;;20.62;62.75
41062;BME280;26812;42.662;23.352;2023-05-31T07:10:51;95105.84;;;20.81;62.05
41062;BME280;26812;42.662;23.352;2023-05-31T07:13:16;95098.50;;;20.85;62.12
41062;BME280;26812;42.662;23.352;2023-05-31T07:15:42;95100.00;;;21.23;61.52
41062;BME280;26812;42.662;23.352;2023-05-31T07:18:07;95084.56;;;21.04;61.84
41062;BME280;26812;42.662;23.352;2023-05-31T07:20:32;95110.41;;;21.07;61.44
41062;BME280;26812;42.662;23.352;2023-05-31T07:22:58;95118.81;;;21.28;61.54
41062;BME280;26812;42.662;23.352;2023-05-31T07:25:23;95117.09;;;21.61;60.05
41062;BME280;26812;42.662;23.352;2023-05-31T07:27:49;95102.84;;;21.41;60.15
41062;BME280;26812;42.662;23.352;2023-05-31T07:30:15;95075.16;;;21.02;59.37
41062;BME280;26812;42.662;23.352;2023-05-31T07:32:40;95104.31;;;21.24;60.08
41062;BME280;26812;42.662;23.352;2023-05-31T07:35:06;95074.63;;;20.86;60.15
41062;BME280;26812;42.662;23.352;2023-05-31T07:37:31;95068.00;;;20.87;59.65
41062;BME280;26812;42.662;23.352;2023-05-31T07:39:57;95075.50;;;20.97;58.56
41062;BME280;26812;42.662;23.352;2023-05-31T07:42:23;95076.16;;;21.31;58.23
41062;BME280;26812;42.662;23.352;2023-05-31T07:44:48;95104.66;;;21.74;57.85
41062;BME280;26812;42.662;23.352;2023-05-31T07:47:15;95083.84;;;21.73;56.60
41062;BME280;26812;42.662;23.352;2023-05-31T07:49:40;95071.94;;;20.93;59.03
41062;BME280;26812;42.662;23.352;2023-05-31T07:52:05;95069.22;;;20.93;59.23
41062;BME280;26812;42.662;23.352;2023-05-31T07:54:32;95110.25;;;21.37;59.41
41062;BME280;26812;42.662;23.352;2023-05-31T07:56:57;95095.72;;;21.91;57.86
41062;BME280;26812;42.662;23.352;2023-05-31T07:59:23;95079.41;;;21.44;58.56
41062;BME280;26812;42.662;23.352;2023-05-31T08:01:49;95087.09;;;21.24;59.44
41062;BME280;26812;42.662;23.352;2023-05-31T08:04:15;95093.19;;;21.61;59.41
41062;BME280;26812;42.662;23.352;2023-05-31T08:06:40;95095.47;;;21.49;58.46
41062;BME280;26812;42.662;23.352;2023-05-31T08:09:07;95101.53;;;21.76;58.07
41062;BME280;26812;42.662;23.352;2023-05-31T08:11:33;95098.25;;;22.28;56.95
41062;BME280;26812;42.662;23.352;2023-05-31T08:14:03;95030.84;;;22.38;55.95
41062;BME280;26812;42.662;23.352;2023-05-31T08:16:29;95092.81;;;22.53;55.71
41062;BME280;26812;42.662;23.352;2023-05-31T08:18:54;95035.88;;;22.11;58.13
41062;BME280;26812;42.662;23.352;2023-05-31T08:21:20;95056.38;;;22.78;56.56
41062;BME280;26812;42.662;23.352;2023-05-31T08:23:46;95098.44;;;23.07;55.36
41062;BME280;26812;42.662;23.352;2023-05-31T08:26:11;95063.81;;;22.52;55.78
41062;BME280;26812;42.662;23.352;2023-05-31T08:28:37;95084.25;;;22.80;56.62
41062;BME280;26812;42.662;23.352;2023-05-31T08:31:02;95060.72;;;22.93;55.44
41062;BME280;26812;42.662;23.352;2023-05-31T08:33:28;95039.94;;;23.06;54.93
41062;BME280;26812;42.662;23.352;2023-05-31T08:35:54;95076.84;;;23.12;55.96
41062;BME280;26812;42.662;23.352;2023-05-31T08:38:26;95083.03;;;22.59;54.15
41062;BME280;26812;42.662;23.352;2023-05-31T08:40:51;95081.81;;;22.43;55.38
41062;BME280;26812;42.662;23.352;2023-05-31T08:43:19;95046.22;;;23.10;53.94
41062;BME280;26812;42.662;23.352;2023-05-31T08:45:49;95068.59;;;23.34;54.13
41062;BME280;26812;42.662;23.352;2023-05-31T08:48:26;95068.56;;;23.62;52.31
41062;BME280;26812;42.662;23.352;2023-05-31T08:50:52;95075.25;;;23.11;51.71
41062;BME280;26812;42.662;23.352;2023-05-31T08:53:19;95063.84;;;23.56;52.36
41062;BME280;26812;42.662;23.352;2023-05-31T08:55:46;95050.91;;;22.78;51.44
41062;BME280;26812;42.662;23.352;2023-05-31T08:58:13;95061.94;;;23.03;51.36
41062;BME280;26812;42.662;23.352;2023-05-31T09:00:39;95045.41;;;22.92;53.30
41062;BME280;26812;42.662;23.352;2023-05-31T09:03:06;95049.34;;;23.30;52.48
41062;BME280;26812;42.662;23.352;2023-05-31T09:05:32;95052.06;;;23.66;51.78
41062;BME280;26812;42.662;23.352;2023-05-31T09:07:59;95053.22;;;23.65;51.15
41062;BME280;26812;42.662;23.352;2023-05-31T09:10:25;95045.38;;;23.63;52.02
41062;BME280;26812;42.662;23.352;2023-05-31T09:12:50;95038.72;;;23.36;52.35
41062;BME280;26812;42.662;23.352;2023-05-31T09:15:16;95040.28;;;23.44;52.30
41062;BME280;26812;42.662;23.352;2023-05-31T09:17:45;95024.94;;;23.64;52.14
41062;BME280;26812;42.662;23.352;2023-05-31T09:20:12;95035.50;;;23.80;51.74
41062;BME280;26812;42.662;23.352;2023-05-31T09:22:37;95039.50;;;23.36;52.51
41062;BME280;26812;42.662;23.352;2023-05-31T09:25:03;95034.81;;;23.15;52.62
41062;BME280;26812;42.662;23.352;2023-05-31T09:27:39;95045.81;;;22.94;53.82
41062;BME280;26812;42.662;23.352;2023-05-31T09:30:12;95025.81;;;23.01;53.17
41062;BME280;26812;42.662;23.352;2023-05-31T09:32:38;95039.50;;;23.36;53.36
41062;BME280;26812;42.662;23.352;2023-05-31T09:37:45;95034.28;;;22.07;55.82
41062;BME280;26812;42.662;23.352;2023-05-31T09:40:14;95020.19;;;22.15;55.94
41062;BME280;26812;42.662;23.352;2023-05-31T09:42:50;95021.69;;;22.02;56.83
41062;BME280;26812;42.662;23.352;2023-05-31T09:45:17;95040.09;;;21.98;58.20
41062;BME280;26812;42.662;23.352;2023-05-31T09:47:42;95008.56;;;21.53;58.59
41062;BME280;26812;42.662;23.352;2023-05-31T09:50:18;95044.13;;;21.42;61.20
41062;BME280;26812;42.662;23.352;2023-05-31T09:52:46;95050.22;;;21.14;62.47
41062;BME280;26812;42.662;23.352;2023-05-31T09:55:13;95031.31;;;21.57;61.59
41062;BME280;26812;42.662;23.352;2023-05-31T09:57:40;95024.03;;;22.00;59.46
41062;BME280;26812;42.662;23.352;2023-05-31T10:00:08;95019.31;;;22.00;59.92
41062;BME280;26812;42.662;23.352;2023-05-31T10:02:44;95013.44;;;21.91;59.54
41062;BME280;26812;42.662;23.352;2023-05-31T10:05:14;95028.44;;;22.26;58.95
41062;BME280;26812;42.662;23.352;2023-05-31T10:07:40;95007.16;;;21.94;58.01
41062;BME280;26812;42.662;23.352;2023-05-31T10:10:07;95006.38;;;21.94;58.86
41062;BME280;26812;42.662;23.352;2023-05-31T10:12:38;95009.91;;;21.94;59.84
41062;BME280;26812;42.662;23.352;2023-05-31T10:15:06;95016.34;;;22.38;58.26
41062;BME280;26812;42.662;23.352;2023-05-31T10:17:39;94999.88;;;22.62;58.46
41062;BME280;26812;42.662;23.352;2023-05-31T10:20:08;95021.88;;;22.66;58.37
41062;BME280;26812;42.662;23.352;2023-05-31T10:22:39;95015.16;;;22.35;57.71
41062;BME280;26812;42.662;23.352;2023-05-31T10:25:11;95021.84;;;22.41;58.78
41062;BME280;26812;42.662;23.352;2023-05-31T10:27:42;95020.13;;;22.01;60.23
41062;BME280;26812;42.662;23.352;2023-05-31T10:30:11;95002.03;;;21.75;57.91
41062;BME280;26812;42.662;23.352;2023-05-31T10:32:56;94996.56;;;21.86;58.35
41062;BME280;26812;42.662;23.352;2023-05-31T10:35:25;95007.81;;;21.56;58.69
41062;BME280;26812;42.662;23.352;2023-05-31T10:37:51;94994.78;;;21.38;60.28
41062;BME280;26812;42.662;23.352;2023-05-31T10:45:55;94985.06;;;20.90;63.37
41062;BME280;26812;42.662;23.352;2023-05-31T10:48:26;95005.91;;;21.05;62.98
41062;BME280;26812;42.662;23.352;2023-05-31T10:50:59;95016.38;;;20.89;64.26
41062;BME280;26812;42.662;23.352;2023-05-31T10:53:29;95006.25;;;20.96;65.22
41062;BME280;26812;42.662;23.352;2023-05-31T10:56:04;95003.56;;;21.07;67.41
41062;BME280;26812;42.662;23.352;2023-05-31T11:00:57;94992.28;;;21.16;64.41
41062;BME280;26812;42.662;23.352;2023-05-31T11:03:23;94997.19;;;21.47;65.28
41062;BME280;26812;42.662;23.352;2023-05-31T11:05:57;94991.59;;;21.26;67.04
41062;BME280;26812;42.662;23.352;2023-05-31T11:08:23;94979.13;;;21.35;66.82
41062;BME280;26812;42.662;23.352;2023-05-31T11:10:49;94979.91;;;21.39;64.60
41062;BME280;26812;42.662;23.352;2023-05-31T11:13:14;94983.53;;;21.54;63.87
41062;BME280;26812;42.662;23.352;2023-05-31T11:15:42;94985.16;;;21.73;65.03
41062;BME280;26812;42.662;23.352;2023-05-31T11:18:08;94986.81;;;21.99;65.05
41062;BME280;26812;42.662;23.352;2023-05-31T11:20:35;94986.03;;;22.02;65.08
41062;BME280;26812;42.662;23.352;2023-05-31T11:25:53;94973.22;;;22.70;59.29
41062;BME280;26812;42.662;23.352;2023-05-31T11:28:56;94978.63;;;23.45;59.88
41062;BME280;26812;42.662;23.352;2023-05-31T11:31:57;94966.84;;;23.37;56.58
41062;BME280;26812;42.662;23.352;2023-05-31T11:34:31;94968.00;;;23.61;56.15
41062;BME280;26812;42.662;23.352;2023-05-31T11:37:00;94965.16;;;23.75;55.84
41062;BME280;26812;42.662;23.352;2023-05-31T11:39:33;94967.81;;;23.97;52.82
41062;BME280;26812;42.662;23.352;2023-05-31T11:41:58;94949.06;;;23.74;52.36
41062;BME280;26812;42.662;23.352;2023-05-31T11:44:29;94967.94;;;23.72;51.61
41062;BME280;26812;42.662;23.352;2023-05-31T11:47:05;94961.72;;;23.43;53.01
41062;BME280;26812;42.662;23.352;2023-05-31T11:49:51;94916.72;;;22.98;53.83
41062;BME280;26812;42.662;23.352;2023-05-31T11:52:40;94879.88;;;22.38;53.89
41062;BME280;26812;42.662;23.352;2023-05-31T11:55:32;94805.78;;;21.78;54.01
41062;BME280;26812;42.662;23.352;2023-05-31T11:58:01;94875.56;;;22.23;55.32
41062;BME280;26812;42.662;23.352;2023-05-31T12:00:59;94966.53;;;22.57;57.45
41062;BME280;26812;42.662;23.352;2023-05-31T12:03:25;94909.59;;;21.79;58.92
41062;BME280;26812;42.662;23.352;2023-05-31T12:06:11;94974.50;;;21.54;62.44
41062;BME280;26812;42.662;23.352;2023-05-31T12:09:22;94809.06;;;20.27;62.91
41062;BME280;26812;42.662;23.352;2023-05-31T12:11:59;94815.28;;;20.21;65.62
41062;BME280;26812;42.662;23.352;2023-05-31T12:14:28;94968.09;;;21.25;68.87
41062;BME280;26812;42.662;23.352;2023-05-31T12:16:54;94872.00;;;20.31;70.44
41062;BME280;26812;42.662;23.352;2023-05-31T12:19:20;94945.00;;;20.64;72.07
41062;BME280;26812;42.662;23.352;2023-05-31T12:21:49;94959.72;;;20.49;73.53
41062;BME280;26812;42.662;23.352;2023-05-31T12:24:16;94945.13;;;20.34;75.02
41062;BME280;26812;42.662;23.352;2023-05-31T12:26:46;94973.94;;;20.65;73.63
41062;BME280;26812;42.662;23.352;2023-05-31T12:29:30;94963.66;;;20.10;71.71
41062;BME280;26812;42.662;23.352;2023-05-31T12:32:06;94958.88;;;20.00;69.47
41062;BME280;26812;42.662;23.352;2023-05-31T12:34:37;94955.56;;;20.21;73.39
41062;BME280;26812;42.662;23.352;2023-05-31T12:37:04;94950.09;;;20.21;74.37
41062;BME280;26812;42.662;23.352;2023-05-31T12:39:30;94940.00;;;20.29;75.38
41062;BME280;26812;42.662;23.352;2023-05-31T12:41:57;94948.22;;;20.29;76.30
41062;BME280;26812;42.662;23.352;2023-05-31T12:44:23;94908.34;;;19.87;78.45
41062;BME280;26812;42.662;23.352;2023-05-31T12:46:49;94935.63;;;19.80;81.24
41062;BME280;26812;42.662;23.352;2023-05-31T12:49:19;94938.41;;;19.87;81.75
41062;BME280;26812;42.662;23.352;2023-05-31T12:51:45;94930.09;;;19.73;82.70
41062;BME280;26812;42.662;23.352;2023-05-31T12:54:16;94937.50;;;19.72;83.87
41062;BME280;26812;42.662;23.352;2023-05-31T12:56:42;94927.72;;;19.71;84.55
41062;BME280;26812;42.662;23.352;2023-05-31T12:59:07;94912.97;;;19.46;84.70
41062;BME280;26812;42.662;23.352;2023-05-31T13:01:35;94941.16;;;19.87;83.89
41062;BME280;26812;42.662;23.352;2023-05-31T13:04:00;94939.91;;;19.81;84.15
41062;BME280;26812;42.662;23.352;2023-05-31T13:06:26;94918.28;;;19.65;84.41
41062;BME280;26812;42.662;23.352;2023-05-31T13:08:51;94917.28;;;19.17;86.07